sensor_id;sensor_type;location;lat;lon;timestamp;P1;durP1;ratioP1;P2;durP2;ratioP2
12271;SDS011;6198;51.446;6.698;2024-03-22T00:01:53;37.90;;;21.43;;
12271;SDS011;6198;51.446;6.698;2024-03-22T00:04:20;34.30;;;20.67;;
12271;SDS011;6198;51.446;6.698;2024-03-22T00:06:47;36.10;;;20.97;;
12271;SDS011;6198;51.446;6.698;2024-03-22T00:09:13;30.33;;;18.67;;
12271;SDS011;6198;51.446;6.698;2024-03-22T00:11:39;31.60;;;19.27;;
12271;SDS011;6198;51.446;6.698;2024-03-22T00:14:06;32.77;;;21.17;;
12271;SDS011;6198;51.446;6.698;2024-03-22T00:16:32;33.63;;;20.63;;
12271;SDS011;6198;51.446;6.698;2024-03-22T00:18:58;36.77;;;20.33;;
12271;SDS011;6198;51.446;6.698;2024-03-22T00:21:24;42.63;;;22.47;;
12271;SDS011;6198;51.446;6.698;2024-03-22T00:23:50;33.27;;;20.33;;
12271;SDS011;6198;51.446;6.698;2024-03-22T00:26:16;33.10;;;19.90;;
12271;SDS011;6198;51.446;6.698;2024-03-22T00:28:42;40.07;;;21.80;;
12271;SDS011;6198;51.446;6.698;2024-03-22T00:31:08;37.77;;;21.97;;
12271;SDS011;6198;51.446;6.698;2024-03-22T00:33:34;34.03;;;20.03;;
12271;SDS011;6198;51.446;6.698;2024-03-22T00:36:00;34.70;;;21.93;;
12271;SDS011;6198;51.446;6.698;2024-03-22T00:38:26;33.00;;;21.10;;
12271;SDS011;6198;51.446;6.698;2024-03-22T00:40:52;37.03;;;21.10;;
12271;SDS011;6198;51.446;6.698;2024-03-22T00:43:19;32.23;;;20.53;;
12271;SDS011;6198;51.446;6.698;2024-03-22T00:45:45;34.67;;;22.03;;
12271;SDS011;6198;51.446;6.698;2024-03-22T00:48:11;35.53;;;21.47;;
12271;SDS011;6198;51.446;6.698;2024-03-22T00:50:37;33.00;;;21.37;;
12271;SDS011;6198;51.446;6.698;2024-03-22T00:53:03;34.83;;;20.93;;
12271;SDS011;6198;51.446;6.698;2024-03-22T00:55:30;35.13;;;20.63;;
12271;SDS011;6198;51.446;6.698;2024-03-22T00:57:56;36.50;;;21.87;;
12271;SDS011;6198;51.446;6.698;2024-03-22T01:00:23;34.63;;;21.20;;
12271;SDS011;6198;51.446;6.698;2024-03-22T01:02:49;38.70;;;22.73;;
12271;SDS011;6198;51.446;6.698;2024-03-22T01:05:15;36.50;;;21.87;;
12271;SDS011;6198;51.446;6.698;2024-03-22T01:07:41;37.43;;;22.63;;
12271;SDS011;6198;51.446;6.698;2024-03-22T01:10:07;33.50;;;22.07;;
12271;SDS011;6198;51.446;6.698;2024-03-22T01:12:33;37.13;;;22.03;;
12271;SDS011;6198;51.446;6.698;2024-03-22T01:15:00;31.93;;;21.10;;
12271;SDS011;6198;51.446;6.698;2024-03-22T01:17:26;33.83;;;21.47;;
12271;SDS011;6198;51.446;6.698;2024-03-22T01:19:52;34.23;;;21.37;;
12271;SDS011;6198;51.446;6.698;2024-03-22T01:22:18;37.27;;;22.73;;
12271;SDS011;6198;51.446;6.698;2024-03-22T01:24:44;35.70;;;22.17;;
12271;SDS011;6198;51.446;6.698;2024-03-22T01:27:10;33.87;;;20.27;;
12271;SDS011;6198;51.446;6.698;2024-03-22T01:29:36;32.73;;;21.83;;
12271;SDS011;6198;51.446;6.698;2024-03-22T01:32:02;38.53;;;22.13;;
12271;SDS011;6198;51.446;6.698;2024-03-22T01:34:28;34.73;;;21.73;;
12271;SDS011;6198;51.446;6.698;2024-03-22T01:36:54;34.20;;;21.30;;
12271;SDS011;6198;51.446;6.698;2024-03-22T01:39:21;34.27;;;21.80;;
12271;SDS011;6198;51.446;6.698;2024-03-22T01:41:47;34.07;;;21.33;;
12271;SDS011;6198;51.446;6.698;2024-03-22T01:44:13;34.20;;;20.80;;
12271;SDS011;6198;51.446;6.698;2024-03-22T01:46:40;36.97;;;22.37;;
12271;SDS011;6198;51.446;6.698;2024-03-22T01:49:07;35.70;;;21.40;;
12271;SDS011;6198;51.446;6.698;2024-03-22T01:51:33;37.13;;;21.07;;
12271;SDS011;6198;51.446;6.698;2024-03-22T01:54:00;34.57;;;21.80;;
12271;SDS011;6198;51.446;6.698;2024-03-22T01:56:27;36.13;;;21.57;;
12271;SDS011;6198;51.446;6.698;2024-03-22T01:58:53;32.57;;;21.23;;
12271;SDS011;6198;51.446;6.698;2024-03-22T02:01:20;37.93;;;22.10;;
12271;SDS011;6198;51.446;6.698;2024-03-22T02:03:46;37.07;;;23.00;;
12271;SDS011;6198;51.446;6.698;2024-03-22T02:06:12;38.10;;;22.27;;
12271;SDS011;6198;51.446;6.698;2024-03-22T02:08:39;38.67;;;21.87;;
12271;SDS011;6198;51.446;6.698;2024-03-22T02:11:06;39.10;;;23.23;;
12271;SDS011;6198;51.446;6.698;2024-03-22T02:13:32;36.80;;;20.87;;
12271;SDS011;6198;51.446;6.698;2024-03-22T02:15:58;32.97;;;21.13;;
12271;SDS011;6198;51.446;6.698;2024-03-22T02:18:24;38.20;;;21.47;;
12271;SDS011;6198;51.446;6.698;2024-03-22T02:20:50;36.33;;;20.37;;
12271;SDS011;6198;51.446;6.698;2024-03-22T02:23:16;38.63;;;22.40;;
12271;SDS011;6198;51.446;6.698;2024-03-22T02:25:42;38.60;;;21.27;;
12271;SDS011;6198;51.446;6.698;2024-03-22T02:28:08;35.33;;;22.23;;
12271;SDS011;6198;51.446;6.698;2024-03-22T02:30:34;43.50;;;22.40;;
12271;SDS011;6198;51.446;6.698;2024-03-22T02:33:00;39.40;;;23.10;;
12271;SDS011;6198;51.446;6.698;2024-03-22T02:35:26;40.37;;;22.50;;
12271;SDS011;6198;51.446;6.698;2024-03-22T02:37:52;42.90;;;22.83;;
12271;SDS011;6198;51.446;6.698;2024-03-22T02:40:18;42.63;;;24.03;;
12271;SDS011;6198;51.446;6.698;2024-03-22T02:42:44;40.07;;;23.30;;
12271;SDS011;6198;51.446;6.698;2024-03-22T02:45:09;41.80;;;23.37;;
12271;SDS011;6198;51.446;6.698;2024-03-22T02:47:35;41.53;;;23.07;;
12271;SDS011;6198;51.446;6.698;2024-03-22T02:50:01;36.47;;;21.67;;
12271;SDS011;6198;51.446;6.698;2024-03-22T02:52:27;38.50;;;22.67;;
12271;SDS011;6198;51.446;6.698;2024-03-22T02:54:53;38.97;;;23.60;;
12271;SDS011;6198;51.446;6.698;2024-03-22T02:57:19;38.50;;;22.37;;
12271;SDS011;6198;51.446;6.698;2024-03-22T02:59:46;46.17;;;24.53;;
12271;SDS011;6198;51.446;6.698;2024-03-22T03:02:12;42.00;;;24.07;;
12271;SDS011;6198;51.446;6.698;2024-03-22T03:04:38;40.37;;;21.53;;
12271;SDS011;6198;51.446;6.698;2024-03-22T03:07:04;38.63;;;23.07;;
12271;SDS011;6198;51.446;6.698;2024-03-22T03:09:30;40.03;;;24.07;;
12271;SDS011;6198;51.446;6.698;2024-03-22T03:11:56;47.10;;;23.43;;
12271;SDS011;6198;51.446;6.698;2024-03-22T03:14:22;48.33;;;24.97;;
12271;SDS011;6198;51.446;6.698;2024-03-22T03:16:47;41.10;;;23.43;;
12271;SDS011;6198;51.446;6.698;2024-03-22T03:19:13;41.90;;;24.90;;
12271;SDS011;6198;51.446;6.698;2024-03-22T03:21:39;37.43;;;22.53;;
12271;SDS011;6198;51.446;6.698;2024-03-22T03:24:05;39.03;;;23.57;;
12271;SDS011;6198;51.446;6.698;2024-03-22T03:26:34;43.73;;;24.00;;
12271;SDS011;6198;51.446;6.698;2024-03-22T03:29:00;42.67;;;24.50;;
12271;SDS011;6198;51.446;6.698;2024-03-22T03:31:26;39.73;;;23.87;;
12271;SDS011;6198;51.446;6.698;2024-03-22T03:33:52;41.73;;;24.57;;
12271;SDS011;6198;51.446;6.698;2024-03-22T03:36:18;44.07;;;23.13;;
12271;SDS011;6198;51.446;6.698;2024-03-22T03:38:43;41.87;;;24.37;;
12271;SDS011;6198;51.446;6.698;2024-03-22T03:41:09;46.73;;;25.00;;
12271;SDS011;6198;51.446;6.698;2024-03-22T03:43:35;50.37;;;24.37;;
12271;SDS011;6198;51.446;6.698;2024-03-22T03:46:01;39.13;;;23.03;;
12271;SDS011;6198;51.446;6.698;2024-03-22T03:48:27;41.93;;;24.17;;
12271;SDS011;6198;51.446;6.698;2024-03-22T03:50:53;39.97;;;23.97;;
12271;SDS011;6198;51.446;6.698;2024-03-22T03:53:20;37.27;;;23.97;;
12271;SDS011;6198;51.446;6.698;2024-03-22T03:55:46;42.07;;;24.17;;
12271;SDS011;6198;51.446;6.698;2024-03-22T03:58:12;43.70;;;25.73;;
12271;SDS011;6198;51.446;6.698;2024-03-22T04:00:38;46.63;;;24.20;;
12271;SDS011;6198;51.446;6.698;2024-03-22T04:03:04;38.60;;;23.60;;
12271;SDS011;6198;51.446;6.698;2024-03-22T04:05:30;40.03;;;23.03;;
12271;SDS011;6198;51.446;6.698;2024-03-22T04:07:56;45.20;;;22.93;;
12271;SDS011;6198;51.446;6.698;2024-03-22T04:10:22;37.10;;;20.73;;
12271;SDS011;6198;51.446;6.698;2024-03-22T04:12:48;41.30;;;22.07;;
12271;SDS011;6198;51.446;6.698;2024-03-22T04:15:14;42.07;;;23.70;;
12271;SDS011;6198;51.446;6.698;2024-03-22T04:17:40;40.60;;;22.67;;
12271;SDS011;6198;51.446;6.698;2024-03-22T04:20:06;43.23;;;23.10;;
12271;SDS011;6198;51.446;6.698;2024-03-22T04:22:33;35.97;;;21.63;;
12271;SDS011;6198;51.446;6.698;2024-03-22T04:24:59;35.73;;;21.43;;
12271;SDS011;6198;51.446;6.698;2024-03-22T04:27:25;44.53;;;22.33;;
12271;SDS011;6198;51.446;6.698;2024-03-22T04:29:51;39.87;;;22.60;;
12271;SDS011;6198;51.446;6.698;2024-03-22T04:32:17;44.13;;;22.70;;
12271;SDS011;6198;51.446;6.698;2024-03-22T04:34:43;39.33;;;22.67;;
12271;SDS011;6198;51.446;6.698;2024-03-22T04:37:09;38.40;;;23.20;;
12271;SDS011;6198;51.446;6.698;2024-03-22T04:39:36;35.33;;;22.40;;
12271;SDS011;6198;51.446;6.698;2024-03-22T04:42:02;43.37;;;22.87;;
12271;SDS011;6198;51.446;6.698;2024-03-22T04:44:29;38.20;;;22.87;;
12271;SDS011;6198;51.446;6.698;2024-03-22T04:46:54;39.83;;;23.43;;
12271;SDS011;6198;51.446;6.698;2024-03-22T04:49:20;41.07;;;23.80;;
12271;SDS011;6198;51.446;6.698;2024-03-22T04:51:46;33.63;;;21.87;;
12271;SDS011;6198;51.446;6.698;2024-03-22T04:54:12;36.47;;;22.23;;
12271;SDS011;6198;51.446;6.698;2024-03-22T04:56:39;36.20;;;22.87;;
12271;SDS011;6198;51.446;6.698;2024-03-22T04:59:05;37.17;;;23.43;;
12271;SDS011;6198;51.446;6.698;2024-03-22T05:01:31;36.37;;;22.30;;
12271;SDS011;6198;51.446;6.698;2024-03-22T05:03:57;36.63;;;22.03;;
12271;SDS011;6198;51.446;6.698;2024-03-22T05:06:23;37.00;;;24.80;;
12271;SDS011;6198;51.446;6.698;2024-03-22T05:08:49;34.93;;;21.87;;
12271;SDS011;6198;51.446;6.698;2024-03-22T05:11:15;38.30;;;23.07;;
12271;SDS011;6198;51.446;6.698;2024-03-22T05:13:41;36.13;;;22.87;;
12271;SDS011;6198;51.446;6.698;2024-03-22T05:16:07;35.67;;;22.70;;
12271;SDS011;6198;51.446;6.698;2024-03-22T05:18:33;33.87;;;22.93;;
12271;SDS011;6198;51.446;6.698;2024-03-22T05:20:59;36.07;;;22.63;;
12271;SDS011;6198;51.446;6.698;2024-03-22T05:23:25;38.20;;;22.70;;
12271;SDS011;6198;51.446;6.698;2024-03-22T05:25:51;36.90;;;22.77;;
12271;SDS011;6198;51.446;6.698;2024-03-22T05:28:17;36.23;;;22.63;;
12271;SDS011;6198;51.446;6.698;2024-03-22T05:30:43;35.33;;;22.07;;
12271;SDS011;6198;51.446;6.698;2024-03-22T05:33:08;33.83;;;22.07;;
12271;SDS011;6198;51.446;6.698;2024-03-22T05:35:34;42.27;;;23.60;;
12271;SDS011;6198;51.446;6.698;2024-03-22T05:38:00;35.97;;;22.43;;
12271;SDS011;6198;51.446;6.698;2024-03-22T05:40:26;34.30;;;21.17;;
12271;SDS011;6198;51.446;6.698;2024-03-22T05:42:52;33.00;;;21.90;;
12271;SDS011;6198;51.446;6.698;2024-03-22T05:45:18;38.63;;;23.00;;
12271;SDS011;6198;51.446;6.698;2024-03-22T05:47:44;32.73;;;20.77;;
12271;SDS011;6198;51.446;6.698;2024-03-22T05:50:11;35.90;;;21.63;;
12271;SDS011;6198;51.446;6.698;2024-03-22T05:52:39;32.13;;;20.30;;
12271;SDS011;6198;51.446;6.698;2024-03-22T05:55:05;29.77;;;19.00;;
12271;SDS011;6198;51.446;6.698;2024-03-22T05:57:31;30.00;;;19.97;;
12271;SDS011;6198;51.446;6.698;2024-03-22T05:59:57;32.67;;;19.57;;
12271;SDS011;6198;51.446;6.698;2024-03-22T06:02:23;31.80;;;19.63;;
12271;SDS011;6198;51.446;6.698;2024-03-22T06:04:49;29.63;;;17.90;;
12271;SDS011;6198;51.446;6.698;2024-03-22T06:07:15;30.20;;;18.77;;
12271;SDS011;6198;51.446;6.698;2024-03-22T06:09:42;29.83;;;20.47;;
12271;SDS011;6198;51.446;6.698;2024-03-22T06:12:13;26.77;;;18.43;;
12271;SDS011;6198;51.446;6.698;2024-03-22T06:14:40;29.40;;;18.53;;
12271;SDS011;6198;51.446;6.698;2024-03-22T06:17:06;28.60;;;19.07;;
12271;SDS011;6198;51.446;6.698;2024-03-22T06:19:32;24.17;;;17.83;;
12271;SDS011;6198;51.446;6.698;2024-03-22T06:21:58;32.57;;;18.73;;
12271;SDS011;6198;51.446;6.698;2024-03-22T06:24:24;26.23;;;17.27;;
12271;SDS011;6198;51.446;6.698;2024-03-22T06:26:50;25.27;;;18.37;;
12271;SDS011;6198;51.446;6.698;2024-03-22T06:29:16;25.77;;;17.90;;
12271;SDS011;6198;51.446;6.698;2024-03-22T06:31:42;30.67;;;18.83;;
12271;SDS011;6198;51.446;6.698;2024-03-22T06:34:08;23.67;;;16.87;;
12271;SDS011;6198;51.446;6.698;2024-03-22T06:36:34;23.40;;;16.40;;
12271;SDS011;6198;51.446;6.698;2024-03-22T06:39:00;28.53;;;17.83;;
12271;SDS011;6198;51.446;6.698;2024-03-22T06:41:27;26.87;;;17.90;;
12271;SDS011;6198;51.446;6.698;2024-03-22T06:43:53;27.00;;;18.00;;
12271;SDS011;6198;51.446;6.698;2024-03-22T06:46:19;28.53;;;17.27;;
12271;SDS011;6198;51.446;6.698;2024-03-22T06:48:45;29.30;;;17.57;;
12271;SDS011;6198;51.446;6.698;2024-03-22T06:51:12;24.70;;;17.00;;
12271;SDS011;6198;51.446;6.698;2024-03-22T06:53:37;26.90;;;18.20;;
12271;SDS011;6198;51.446;6.698;2024-03-22T06:56:04;23.90;;;17.13;;
12271;SDS011;6198;51.446;6.698;2024-03-22T06:58:30;26.60;;;17.30;;
12271;SDS011;6198;51.446;6.698;2024-03-22T07:00:56;25.60;;;17.50;;
12271;SDS011;6198;51.446;6.698;2024-03-22T07:03:22;29.47;;;17.13;;
12271;SDS011;6198;51.446;6.698;2024-03-22T07:05:48;22.67;;;16.40;;
12271;SDS011;6198;51.446;6.698;2024-03-22T07:08:14;22.83;;;15.67;;
12271;SDS011;6198;51.446;6.698;2024-03-22T07:10:40;22.73;;;16.10;;
12271;SDS011;6198;51.446;6.698;2024-03-22T07:13:06;23.13;;;16.47;;
12271;SDS011;6198;51.446;6.698;2024-03-22T07:15:32;25.27;;;15.30;;
12271;SDS011;6198;51.446;6.698;2024-03-22T07:17:58;22.97;;;15.83;;
12271;SDS011;6198;51.446;6.698;2024-03-22T07:20:25;23.97;;;16.17;;
12271;SDS011;6198;51.446;6.698;2024-03-22T07:22:51;24.00;;;16.00;;
12271;SDS011;6198;51.446;6.698;2024-03-22T07:25:18;25.97;;;15.83;;
12271;SDS011;6198;51.446;6.698;2024-03-22T07:27:44;23.27;;;16.07;;
12271;SDS011;6198;51.446;6.698;2024-03-22T07:30:11;23.30;;;15.80;;
12271;SDS011;6198;51.446;6.698;2024-03-22T07:32:37;26.63;;;16.47;;
12271;SDS011;6198;51.446;6.698;2024-03-22T07:35:03;24.17;;;15.47;;
12271;SDS011;6198;51.446;6.698;2024-03-22T07:37:29;20.37;;;14.83;;
12271;SDS011;6198;51.446;6.698;2024-03-22T07:39:55;21.27;;;14.80;;
12271;SDS011;6198;51.446;6.698;2024-03-22T07:42:21;22.80;;;15.53;;
12271;SDS011;6198;51.446;6.698;2024-03-22T07:44:47;25.27;;;15.57;;
12271;SDS011;6198;51.446;6.698;2024-03-22T07:47:13;21.70;;;14.90;;
12271;SDS011;6198;51.446;6.698;2024-03-22T07:49:39;23.87;;;14.83;;
12271;SDS011;6198;51.446;6.698;2024-03-22T07:52:05;19.93;;;14.53;;
12271;SDS011;6198;51.446;6.698;2024-03-22T07:54:31;18.97;;;13.70;;
12271;SDS011;6198;51.446;6.698;2024-03-22T07:56:57;22.27;;;14.93;;
12271;SDS011;6198;51.446;6.698;2024-03-22T07:59:23;22.00;;;14.17;;
12271;SDS011;6198;51.446;6.698;2024-03-22T08:01:49;20.23;;;13.27;;
12271;SDS011;6198;51.446;6.698;2024-03-22T08:04:15;20.07;;;14.17;;
12271;SDS011;6198;51.446;6.698;2024-03-22T08:06:41;19.37;;;12.77;;
12271;SDS011;6198;51.446;6.698;2024-03-22T08:09:07;18.97;;;13.10;;
12271;SDS011;6198;51.446;6.698;2024-03-22T08:11:33;19.30;;;13.17;;
12271;SDS011;6198;51.446;6.698;2024-03-22T08:13:59;22.60;;;13.00;;
12271;SDS011;6198;51.446;6.698;2024-03-22T08:16:31;20.73;;;13.70;;
12271;SDS011;6198;51.446;6.698;2024-03-22T08:18:57;20.17;;;12.67;;
12271;SDS011;6198;51.446;6.698;2024-03-22T08:21:23;19.17;;;13.30;;
12271;SDS011;6198;51.446;6.698;2024-03-22T08:23:50;16.70;;;12.27;;
12271;SDS011;6198;51.446;6.698;2024-03-22T08:26:16;18.70;;;11.73;;
12271;SDS011;6198;51.446;6.698;2024-03-22T08:28:42;18.57;;;12.30;;
12271;SDS011;6198;51.446;6.698;2024-03-22T08:31:08;17.23;;;12.40;;
12271;SDS011;6198;51.446;6.698;2024-03-22T08:33:34;16.57;;;12.27;;
12271;SDS011;6198;51.446;6.698;2024-03-22T08:36:00;17.30;;;12.03;;
12271;SDS011;6198;51.446;6.698;2024-03-22T08:38:26;16.40;;;12.17;;
12271;SDS011;6198;51.446;6.698;2024-03-22T08:40:52;16.90;;;11.30;;
12271;SDS011;6198;51.446;6.698;2024-03-22T08:43:18;15.27;;;10.90;;
12271;SDS011;6198;51.446;6.698;2024-03-22T08:45:47;16.23;;;11.60;;
12271;SDS011;6198;51.446;6.698;2024-03-22T08:48:13;18.27;;;11.00;;
12271;SDS011;6198;51.446;6.698;2024-03-22T08:50:38;16.40;;;10.80;;
12271;SDS011;6198;51.446;6.698;2024-03-22T08:53:04;14.33;;;10.30;;
12271;SDS011;6198;51.446;6.698;2024-03-22T08:55:31;14.57;;;10.77;;
12271;SDS011;6198;51.446;6.698;2024-03-22T08:57:57;13.97;;;11.47;;
12271;SDS011;6198;51.446;6.698;2024-03-22T09:00:23;16.10;;;11.27;;
12271;SDS011;6198;51.446;6.698;2024-03-22T09:02:49;17.30;;;11.57;;
12271;SDS011;6198;51.446;6.698;2024-03-22T09:05:15;15.13;;;10.67;;
12271;SDS011;6198;51.446;6.698;2024-03-22T09:07:41;15.33;;;10.87;;
12271;SDS011;6198;51.446;6.698;2024-03-22T09:10:07;14.57;;;10.53;;
12271;SDS011;6198;51.446;6.698;2024-03-22T09:12:34;23.53;;;10.60;;
12271;SDS011;6198;51.446;6.698;2024-03-22T09:15:00;18.87;;;11.53;;
12271;SDS011;6198;51.446;6.698;2024-03-22T09:17:26;14.80;;;10.40;;
12271;SDS011;6198;51.446;6.698;2024-03-22T09:19:52;15.57;;;9.23;;
12271;SDS011;6198;51.446;6.698;2024-03-22T09:22:18;14.57;;;10.13;;
12271;SDS011;6198;51.446;6.698;2024-03-22T09:24:44;16.97;;;10.00;;
12271;SDS011;6198;51.446;6.698;2024-03-22T09:27:10;15.27;;;10.57;;
12271;SDS011;6198;51.446;6.698;2024-03-22T09:29:36;16.33;;;11.83;;
12271;SDS011;6198;51.446;6.698;2024-03-22T09:32:03;15.43;;;11.43;;
12271;SDS011;6198;51.446;6.698;2024-03-22T09:34:29;14.17;;;9.47;;
12271;SDS011;6198;51.446;6.698;2024-03-22T09:36:56;14.10;;;11.03;;
12271;SDS011;6198;51.446;6.698;2024-03-22T09:39:22;14.90;;;10.20;;
12271;SDS011;6198;51.446;6.698;2024-03-22T09:41:49;18.03;;;11.17;;
12271;SDS011;6198;51.446;6.698;2024-03-22T09:44:17;17.70;;;10.97;;
12271;SDS011;6198;51.446;6.698;2024-03-22T09:46:43;14.83;;;10.87;;
12271;SDS011;6198;51.446;6.698;2024-03-22T09:49:10;16.30;;;10.30;;
12271;SDS011;6198;51.446;6.698;2024-03-22T09:51:37;14.13;;;10.87;;
12271;SDS011;6198;51.446;6.698;2024-03-22T09:54:04;20.03;;;10.90;;
12271;SDS011;6198;51.446;6.698;2024-03-22T09:56:30;18.37;;;12.17;;
12271;SDS011;6198;51.446;6.698;2024-03-22T09:58:57;15.13;;;10.83;;
12271;SDS011;6198;51.446;6.698;2024-03-22T10:01:24;17.10;;;10.53;;
12271;SDS011;6198;51.446;6.698;2024-03-22T10:03:51;18.37;;;11.60;;
12271;SDS011;6198;51.446;6.698;2024-03-22T10:06:17;16.70;;;11.33;;
12271;SDS011;6198;51.446;6.698;2024-03-22T10:08:43;17.87;;;10.83;;
12271;SDS011;6198;51.446;6.698;2024-03-22T10:11:10;17.67;;;11.60;;
12271;SDS011;6198;51.446;6.698;2024-03-22T10:13:36;17.87;;;10.40;;
12271;SDS011;6198;51.446;6.698;2024-03-22T10:16:02;13.83;;;9.73;;
12271;SDS011;6198;51.446;6.698;2024-03-22T10:18:28;14.37;;;9.63;;
12271;SDS011;6198;51.446;6.698;2024-03-22T10:23:26;14.73;;;10.33;;
12271;SDS011;6198;51.446;6.698;2024-03-22T10:25:52;15.03;;;10.63;;
12271;SDS011;6198;51.446;6.698;2024-03-22T10:28:18;14.20;;;10.23;;
12271;SDS011;6198;51.446;6.698;2024-03-22T10:30:44;14.40;;;10.50;;
12271;SDS011;6198;51.446;6.698;2024-03-22T10:33:10;15.53;;;9.90;;
12271;SDS011;6198;51.446;6.698;2024-03-22T10:35:36;13.43;;;10.23;;
12271;SDS011;6198;51.446;6.698;2024-03-22T10:38:03;13.80;;;10.90;;
12271;SDS011;6198;51.446;6.698;2024-03-22T10:40:29;16.20;;;9.60;;
12271;SDS011;6198;51.446;6.698;2024-03-22T10:42:55;14.80;;;10.23;;
12271;SDS011;6198;51.446;6.698;2024-03-22T10:45:22;16.37;;;9.87;;
12271;SDS011;6198;51.446;6.698;2024-03-22T10:47:50;14.07;;;9.40;;
12271;SDS011;6198;51.446;6.698;2024-03-22T10:50:19;16.00;;;9.87;;
12271;SDS011;6198;51.446;6.698;2024-03-22T10:52:52;14.97;;;9.90;;
12271;SDS011;6198;51.446;6.698;2024-03-22T10:55:19;14.90;;;9.53;;
12271;SDS011;6198;51.446;6.698;2024-03-22T10:57:47;13.67;;;9.13;;
12271;SDS011;6198;51.446;6.698;2024-03-22T11:00:14;13.20;;;9.90;;
12271;SDS011;6198;51.446;6.698;2024-03-22T11:02:42;14.43;;;9.47;;
12271;SDS011;6198;51.446;6.698;2024-03-22T11:05:16;11.23;;;9.00;;
12271;SDS011;6198;51.446;6.698;2024-03-22T11:07:43;14.60;;;9.27;;
12271;SDS011;6198;51.446;6.698;2024-03-22T11:10:09;15.07;;;9.37;;
12271;SDS011;6198;51.446;6.698;2024-03-22T11:12:37;14.00;;;9.83;;
12271;SDS011;6198;51.446;6.698;2024-03-22T11:15:03;12.93;;;9.83;;
12271;SDS011;6198;51.446;6.698;2024-03-22T11:17:29;12.20;;;9.27;;
12271;SDS011;6198;51.446;6.698;2024-03-22T11:19:55;13.73;;;10.70;;
12271;SDS011;6198;51.446;6.698;2024-03-22T11:22:21;14.17;;;10.10;;
12271;SDS011;6198;51.446;6.698;2024-03-22T11:24:47;12.80;;;9.60;;
12271;SDS011;6198;51.446;6.698;2024-03-22T11:27:13;11.33;;;8.53;;
12271;SDS011;6198;51.446;6.698;2024-03-22T11:29:39;14.47;;;9.50;;
12271;SDS011;6198;51.446;6.698;2024-03-22T11:32:09;12.33;;;8.93;;
12271;SDS011;6198;51.446;6.698;2024-03-22T11:34:36;11.93;;;9.53;;
12271;SDS011;6198;51.446;6.698;2024-03-22T11:37:02;12.30;;;9.87;;
12271;SDS011;6198;51.446;6.698;2024-03-22T11:39:28;13.20;;;10.90;;
12271;SDS011;6198;51.446;6.698;2024-03-22T11:41:54;14.17;;;11.10;;
12271;SDS011;6198;51.446;6.698;2024-03-22T11:44:20;15.13;;;10.80;;
12271;SDS011;6198;51.446;6.698;2024-03-22T11:46:47;16.93;;;11.03;;
12271;SDS011;6198;51.446;6.698;2024-03-22T11:49:13;13.57;;;10.47;;
12271;SDS011;6198;51.446;6.698;2024-03-22T11:51:39;13.67;;;10.80;;
12271;SDS011;6198;51.446;6.698;2024-03-22T11:54:06;13.70;;;10.90;;
12271;SDS011;6198;51.446;6.698;2024-03-22T11:56:34;16.30;;;11.97;;
12271;SDS011;6198;51.446;6.698;2024-03-22T11:59:03;15.03;;;11.50;;
12271;SDS011;6198;51.446;6.698;2024-03-22T12:01:29;16.23;;;11.23;;
12271;SDS011;6198;51.446;6.698;2024-03-22T12:03:55;15.00;;;11.80;;
12271;SDS011;6198;51.446;6.698;2024-03-22T12:06:21;14.90;;;10.93;;
12271;SDS011;6198;51.446;6.698;2024-03-22T12:08:47;14.17;;;10.77;;
12271;SDS011;6198;51.446;6.698;2024-03-22T12:11:13;17.20;;;10.73;;
12271;SDS011;6198;51.446;6.698;2024-03-22T12:13:39;15.93;;;10.77;;
12271;SDS011;6198;51.446;6.698;2024-03-22T12:16:05;13.93;;;9.90;;
12271;SDS011;6198;51.446;6.698;2024-03-22T12:18:32;14.40;;;11.17;;
12271;SDS011;6198;51.446;6.698;2024-03-22T12:20:58;17.33;;;12.13;;
12271;SDS011;6198;51.446;6.698;2024-03-22T12:23:25;16.83;;;11.67;;
12271;SDS011;6198;51.446;6.698;2024-03-22T12:25:51;15.33;;;11.93;;
12271;SDS011;6198;51.446;6.698;2024-03-22T12:28:17;12.63;;;10.87;;
12271;SDS011;6198;51.446;6.698;2024-03-22T12:30:43;15.90;;;12.00;;
12271;SDS011;6198;51.446;6.698;2024-03-22T12:33:09;15.93;;;12.13;;
12271;SDS011;6198;51.446;6.698;2024-03-22T12:35:36;16.37;;;11.60;;
12271;SDS011;6198;51.446;6.698;2024-03-22T12:38:02;12.33;;;10.10;;
12271;SDS011;6198;51.446;6.698;2024-03-22T12:40:29;14.07;;;10.83;;
12271;SDS011;6198;51.446;6.698;2024-03-22T12:42:57;13.37;;;10.47;;
12271;SDS011;6198;51.446;6.698;2024-03-22T12:45:23;14.33;;;11.30;;
12271;SDS011;6198;51.446;6.698;2024-03-22T12:47:49;14.77;;;11.53;;
12271;SDS011;6198;51.446;6.698;2024-03-22T12:50:15;14.93;;;11.07;;
12271;SDS011;6198;51.446;6.698;2024-03-22T12:52:41;13.57;;;12.10;;
12271;SDS011;6198;51.446;6.698;2024-03-22T12:55:09;13.73;;;10.77;;
12271;SDS011;6198;51.446;6.698;2024-03-22T12:57:35;12.87;;;10.97;;
12271;SDS011;6198;51.446;6.698;2024-03-22T13:00:01;15.10;;;11.00;;
12271;SDS011;6198;51.446;6.698;2024-03-22T13:02:28;14.87;;;12.17;;
12271;SDS011;6198;51.446;6.698;2024-03-22T13:04:57;13.47;;;9.77;;
12271;SDS011;6198;51.446;6.698;2024-03-22T13:07:23;11.63;;;9.77;;
12271;SDS011;6198;51.446;6.698;2024-03-22T13:09:50;11.10;;;9.13;;
12271;SDS011;6198;51.446;6.698;2024-03-22T13:12:16;12.63;;;10.40;;
12271;SDS011;6198;51.446;6.698;2024-03-22T13:14:42;13.70;;;10.37;;
12271;SDS011;6198;51.446;6.698;2024-03-22T13:17:09;12.60;;;10.57;;
12271;SDS011;6198;51.446;6.698;2024-03-22T13:19:35;14.90;;;10.83;;
12271;SDS011;6198;51.446;6.698;2024-03-22T13:22:01;12.73;;;10.57;;
12271;SDS011;6198;51.446;6.698;2024-03-22T13:24:27;14.93;;;11.07;;
12271;SDS011;6198;51.446;6.698;2024-03-22T13:26:52;16.90;;;12.17;;
12271;SDS011;6198;51.446;6.698;2024-03-22T13:29:18;13.50;;;11.90;;
12271;SDS011;6198;51.446;6.698;2024-03-22T13:31:44;13.43;;;10.80;;
12271;SDS011;6198;51.446;6.698;2024-03-22T13:34:10;16.67;;;11.63;;
12271;SDS011;6198;51.446;6.698;2024-03-22T13:36:36;17.90;;;14.03;;
12271;SDS011;6198;51.446;6.698;2024-03-22T13:39:03;17.97;;;14.13;;
12271;SDS011;6198;51.446;6.698;2024-03-22T13:41:29;18.50;;;13.83;;
12271;SDS011;6198;51.446;6.698;2024-03-22T13:43:55;15.03;;;11.87;;
12271;SDS011;6198;51.446;6.698;2024-03-22T13:46:21;12.20;;;10.40;;
12271;SDS011;6198;51.446;6.698;2024-03-22T13:48:47;13.67;;;11.77;;
12271;SDS011;6198;51.446;6.698;2024-03-22T13:51:14;17.50;;;13.03;;
12271;SDS011;6198;51.446;6.698;2024-03-22T13:53:40;12.97;;;11.07;;
12271;SDS011;6198;51.446;6.698;2024-03-22T13:56:06;18.83;;;12.70;;
12271;SDS011;6198;51.446;6.698;2024-03-22T13:58:32;15.33;;;12.33;;
12271;SDS011;6198;51.446;6.698;2024-03-22T14:00:59;21.97;;;15.47;;
12271;SDS011;6198;51.446;6.698;2024-03-22T14:03:25;16.43;;;13.60;;
12271;SDS011;6198;51.446;6.698;2024-03-22T14:05:51;18.17;;;13.57;;
12271;SDS011;6198;51.446;6.698;2024-03-22T14:08:17;14.97;;;13.37;;
12271;SDS011;6198;51.446;6.698;2024-03-22T14:10:43;17.23;;;13.60;;
12271;SDS011;6198;51.446;6.698;2024-03-22T14:13:09;24.90;;;14.87;;
12271;SDS011;6198;51.446;6.698;2024-03-22T14:15:35;19.00;;;15.17;;
12271;SDS011;6198;51.446;6.698;2024-03-22T14:18:02;18.47;;;14.00;;
12271;SDS011;6198;51.446;6.698;2024-03-22T14:20:28;21.70;;;15.03;;
12271;SDS011;6198;51.446;6.698;2024-03-22T14:22:54;21.90;;;16.93;;
12271;SDS011;6198;51.446;6.698;2024-03-22T14:25:20;22.10;;;16.63;;
12271;SDS011;6198;51.446;6.698;2024-03-22T14:27:46;18.60;;;14.30;;
12271;SDS011;6198;51.446;6.698;2024-03-22T14:30:13;21.27;;;15.33;;
12271;SDS011;6198;51.446;6.698;2024-03-22T14:32:40;18.83;;;16.47;;